Terminal Aerodrome Forecast
Issued by NWS Blacksburg, VA

Home | Current Version | Previous Version | Text Only | Print | Product List | Glossary On
Versions: 1 2 3 4 5 6 7 8 9 10 11 12 13 14 15 16 17 18 19 20 21 22 23 24 25 26 27 28 29 30 31 32 33 34 35 36 37 38 39 40 41 42 43 44 45 46
570
FTUS41 KRNK 312344
TAFDAN
TAF
KDAN 312344Z 0100/0124 07006KT P6SM SCT040 SCT120 BKN250
     FM010600 03003KT P6SM OVC007
      TEMPO 0109/0112 3SM BR OVC004
     FM011400 05007KT P6SM SCT040 BKN120
     FM011900 04008KT P6SM VCSH BKN050 BKN150=

USA.gov is the U.S. government's official web portal to all federal, state and local government web resources and services.